Time;durP1;ratioP1;P1;durP2;ratioP2;P2;SDS_P1;SDS_P2;PMS_P1;PMS_P2;Temp;Humidity;BMP_temperature;BMP_pressure;BME280_temperature;BME280_humidity;BME280_pressure;Samples;Min_cycle;Max_cycle;Signal;HPM_P1;HPM_P2
2021/12/11 00:00:22;;;;;;;10.35;5.22;;;;;;;-13.63;67.58;101069.78;4827786;29;20063;-70
2021/12/11 00:02:55;;;;;;;;;;;;;;;-13.65;67.37;101063.69;4843367;29;20052;-67
2021/12/11 00:05:20;;;;;;;8.93;4.72;;;;;;;-13.55;67.67;101067.59;4827513;29;19920;-67
2021/12/11 00:07:45;;;;;;;5.80;2.70;;;;;;;-13.61;68.72;101064.72;4843961;29;20051;-67
2021/12/11 00:10:21;;;;;;;1.73;1.38;;;;;;;-13.71;68.20;101073.66;4855432;29;20036;-67
2021/12/11 00:12:53;;;;;;;3.47;2.63;;;;;;;-13.63;68.58;101086.84;4861497;29;20052;-68
2021/12/11 00:15:21;;;;;;;4.15;3.50;;;;;;;-13.66;69.14;101071.34;4815018;29;20068;-70
2021/12/11 00:17:47;;;;;;;4.97;3.20;;;;;;;-13.55;67.44;101075.28;4830067;29;20132;-68
2021/12/11 00:20:24;;;;;;;12.40;6.15;;;;;;;-13.67;68.59;101074.69;4845661;29;20517;-64
2021/12/11 00:22:52;;;;;;;3.45;2.28;;;;;;;-13.76;68.15;101074.22;4845532;29;20044;-63
2021/12/11 00:25:18;;;;;;;4.40;3.33;;;;;;;-13.61;68.92;101073.28;4862564;29;20419;-65
2021/12/11 00:27:45;;;;;;;12.88;5.35;;;;;;;-13.46;67.98;101074.84;4814877;29;20092;-67
2021/12/11 00:30:19;;;;;;;11.60;5.35;;;;;;;-13.56;67.34;101064.94;4831149;29;20055;-66
2021/12/11 00:32:44;;;;;;;6.73;3.27;;;;;;;-13.55;68.33;101065.03;4863333;29;20571;-64
2021/12/11 00:35:16;;;;;;;3.60;2.10;;;;;;;-13.47;67.90;101062.81;4863133;29;20315;-65
2021/12/11 00:37:41;;;;;;;4.22;3.15;;;;;;;-13.50;67.64;101060.97;4845492;29;20049;-65
2021/12/11 00:40:23;;;;;;;6.68;3.72;;;;;;;-13.52;67.56;101064.25;4863004;29;20059;-65
2021/12/11 00:42:50;;;;;;;5.93;4.80;;;;;;;-13.64;67.64;101064.56;4862256;29;20052;-65
2021/12/11 00:45:22;;;;;;;5.07;3.47;;;;;;;-13.68;67.56;101062.69;4846257;29;20468;-66
2021/12/11 00:47:51;;;;;;;8.75;4.68;;;;;;;-13.70;67.99;101069.41;4845551;29;20100;-66
2021/12/11 00:50:19;;;;;;;8.27;5.03;;;;;;;-13.84;67.20;101071.31;4861914;29;20091;-67
2021/12/11 00:52:51;;;;;;;5.15;3.40;;;;;;;-13.95;68.86;101067.34;4845167;29;20131;-66
2021/12/11 00:55:20;;;;;;;7.93;3.95;;;;;;;-13.89;68.14;101062.53;4829900;29;20060;-66
2021/12/11 00:57:47;;;;;;;6.68;4.40;;;;;;;-13.84;68.95;101070.44;4862062;29;20048;-66
2021/12/11 01:00:19;;;;;;;8.48;4.38;;;;;;;-13.83;68.25;101064.50;4829367;29;20048;-66
2021/12/11 01:02:46;;;;;;;7.47;3.88;;;;;;;-13.85;68.31;101063.53;4845016;29;20752;-65
2021/12/11 01:05:11;;;;;;;8.38;4.55;;;;;;;-13.75;68.16;101058.03;4861829;29;20171;-66
2021/12/11 01:07:37;;;;;;;8.05;4.20;;;;;;;-13.70;66.90;101061.72;4829278;29;20071;-69
2021/12/11 01:10:25;;;;;;;8.13;3.63;;;;;;;-13.82;66.87;101074.84;4862157;29;20052;-69
2021/12/11 01:12:59;;;;;;;11.35;4.18;;;;;;;-13.92;67.58;101066.63;4846183;29;20076;-71
2021/12/11 01:15:32;;;;;;;8.73;3.88;;;;;;;-14.01;67.12;101074.75;4862538;29;20595;-71
2021/12/11 01:18:22;;;;;;;3.05;2.13;;;;;;;-14.10;68.76;101074.25;4845015;29;20148;-69
2021/12/11 01:21:05;;;;;;;6.80;3.17;;;;;;;-14.02;68.12;101070.44;4829447;29;20075;-69
2021/12/11 01:26:08;;;;;;;2.78;1.00;;;;;;;-14.01;67.83;101074.75;4861372;29;20419;-66
2021/12/11 01:28:34;;;;;;;12.35;5.75;;;;;;;-14.13;68.72;101069.03;4861163;29;20127;-65
2021/12/11 01:31:01;;;;;;;2.95;2.00;;;;;;;-14.04;68.87;101067.78;4862480;29;20051;-65
2021/12/11 01:33:26;;;;;;;3.63;2.90;;;;;;;-13.96;68.85;101066.47;4863351;29;20134;-65
2021/12/11 01:35:51;;;;;;;6.53;3.85;;;;;;;-13.86;68.30;101072.03;4847119;29;20397;-65
2021/12/11 01:38:20;;;;;;;7.38;3.65;;;;;;;-13.91;67.23;101078.63;4864026;29;20449;-65
2021/12/11 01:40:48;;;;;;;10.05;4.63;;;;;;;-13.92;67.78;101072.63;4831965;29;20055;-66
2021/12/11 01:43:13;;;;;;;4.18;2.78;;;;;;;-14.00;68.51;101073.94;4847448;29;20603;-65
2021/12/11 01:45:44;;;;;;;6.47;3.45;;;;;;;-14.01;68.53;101093.56;4846875;29;20044;-65
2021/12/11 01:48:09;;;;;;;4.45;3.95;;;;;;;-13.92;68.10;101084.56;4847442;29;20052;-65
2021/12/11 01:50:41;;;;;;;4.57;3.83;;;;;;;-13.93;67.69;101100.75;4863148;29;20048;-70
2021/12/11 01:53:14;;;;;;;4.38;1.15;;;;;;;-13.97;67.80;101089.44;4846850;29;20060;-71
2021/12/11 01:55:45;;;;;;;6.70;2.55;;;;;;;-14.04;67.85;101097.66;4829722;29;20057;-64
2021/12/11 01:58:13;;;;;;;9.55;5.50;;;;;;;-13.99;68.08;101096.19;4861334;29;20056;-65
2021/12/11 02:00:45;;;;;;;4.18;2.17;;;;;;;-14.10;67.82;101085.41;4861357;29;20083;-66
2021/12/11 02:03:15;;;;;;;4.97;2.83;;;;;;;-14.15;67.81;101096.22;4861694;29;20048;-65
2021/12/11 02:05:41;;;;;;;6.93;4.30;;;;;;;-14.24;68.07;101093.22;4861424;29;20064;-65
2021/12/11 02:08:16;;;;;;;6.85;4.10;;;;;;;-14.40;67.41;101089.91;4862694;29;20467;-63
2021/12/11 02:10:58;;;;;;;5.43;3.60;;;;;;;-14.26;68.21;101097.38;4860581;29;20077;-64
2021/12/11 02:13:38;;;;;;;3.10;2.03;;;;;;;-14.27;67.83;101095.63;4861563;29;20131;-64
2021/12/11 02:16:06;;;;;;;10.65;5.32;;;;;;;-14.17;68.26;101085.03;4862005;29;20055;-65
2021/12/11 02:18:35;;;;;;;6.75;4.32;;;;;;;-14.17;67.83;101085.03;4862487;29;20072;-63
2021/12/11 02:21:11;;;;;;;8.85;3.47;;;;;;;-14.31;67.91;101092.00;4859528;29;20048;-65
2021/12/11 02:23:37;;;;;;;4.25;2.55;;;;;;;-14.27;67.76;101098.19;4860669;29;20108;-63
2021/12/11 02:26:10;;;;;;;8.80;4.57;;;;;;;-14.25;67.27;101107.69;4858961;29;20648;-64
2021/12/11 02:28:53;;;;;;;4.65;3.75;;;;;;;-14.32;67.50;101105.63;4860523;29;20516;-63
2021/12/11 02:31:30;;;;;;;6.10;3.95;;;;;;;-14.54;68.18;101106.22;4860338;29;20049;-65
2021/12/11 02:34:07;;;;;;;6.13;4.47;;;;;;;-14.61;68.29;101098.16;4860188;29;20052;-65
2021/12/11 02:36:37;;;;;;;9.68;4.55;;;;;;;-14.43;67.46;101101.66;4863640;29;20058;-66
2021/12/11 02:39:21;;;;;;;8.15;4.57;;;;;;;-14.58;67.28;101094.09;4864529;29;20100;-65
2021/12/11 02:42:27;;;;;;;4.50;2.65;;;;;;;-14.54;67.85;101087.44;4865453;29;20419;-66
2021/12/11 02:44:57;;;;;;;10.35;4.90;;;;;;;-14.41;67.89;101085.59;4869743;29;20041;-64
2021/12/11 02:47:32;;;;;;;7.28;4.40;;;;;;;-14.36;67.21;101089.22;4869320;29;20136;-64
2021/12/11 02:50:17;;;;;;;9.57;5.38;;;;;;;-14.33;67.89;101080.81;4859382;29;20055;-65
2021/12/11 02:52:58;;;;;;;4.72;3.67;;;;;;;-14.37;67.70;101092.59;4846281;29;20123;-65
2021/12/11 02:55:32;;;;;;;6.57;3.80;;;;;;;-14.37;67.14;101095.16;4849748;29;20053;-63
2021/12/11 02:58:04;;;;;;;7.18;4.32;;;;;;;-14.48;66.58;101096.31;4845289;29;20583;-65
2021/12/11 03:00:51;;;;;;;8.57;4.28;;;;;;;-14.59;68.27;101094.00;4845164;29;20059;-64
2021/12/11 03:03:22;;;;;;;6.90;3.35;;;;;;;-14.67;67.34;101098.75;4812648;29;20112;-64
2021/12/11 03:08:34;;;;;;;3.45;2.35;;;;;;;-14.68;68.62;101096.97;4845062;29;20049;-66
2021/12/11 03:11:08;;;;;;;7.90;4.15;;;;;;;-14.57;68.56;101097.53;4845545;29;20044;-66
2021/12/11 03:13:37;;;;;;;2.95;2.20;;;;;;;-14.65;68.48;101099.69;4829044;29;20136;-71
2021/12/11 03:16:03;;;;;;;2.15;1.58;;;;;;;-14.66;68.40;101102.16;4845818;29;20048;-68
2021/12/11 03:18:28;;;;;;;7.05;3.70;;;;;;;-14.76;68.04;101095.69;4845151;29;20065;-68
2021/12/11 03:20:54;;;;;;;2.60;2.08;;;;;;;-14.69;68.39;101100.34;4845692;29;20087;-68
2021/12/11 03:23:19;;;;;;;5.57;3.97;;;;;;;-14.71;69.40;101104.50;4845454;29;20416;-68
2021/12/11 03:25:45;;;;;;;4.60;2.88;;;;;;;-14.56;68.24;101106.97;4845622;29;20041;-67
2021/12/11 03:28:10;;;;;;;9.30;4.72;;;;;;;-14.68;67.89;101108.91;4845714;29;20110;-68
2021/12/11 03:30:41;;;;;;;13.57;4.82;;;;;;;-14.60;68.60;101118.72;4828813;29;20052;-71
2021/12/11 03:33:14;;;;;;;6.65;3.40;;;;;;;-14.56;68.39;101120.66;4828691;29;20048;-70
2021/12/11 03:35:40;;;;;;;4.90;2.15;;;;;;;-14.58;68.78;101106.91;4828409;29;20496;-69
2021/12/11 03:38:09;;;;;;;8.43;5.40;;;;;;;-14.64;68.55;101111.69;4845273;29;20048;-69
2021/12/11 03:40:34;;;;;;;6.65;4.63;;;;;;;-14.49;68.12;101117.59;4845395;29;20131;-69
2021/12/11 03:43:05;;;;;;;0.35;0.35;;;;;;;-14.49;67.21;101103.91;4813060;29;20412;-70
2021/12/11 03:45:34;;;;;;;2.80;1.98;;;;;;;-14.55;67.66;101106.16;4828283;29;20522;-70
2021/12/11 03:48:12;;;;;;;5.75;2.40;;;;;;;-14.65;66.91;101103.91;4827917;29;20114;-68
2021/12/11 03:50:38;;;;;;;3.97;2.55;;;;;;;-14.70;67.39;101101.13;4844806;29;20049;-69
2021/12/11 03:53:04;;;;;;;10.13;2.92;;;;;;;-14.91;67.90;101090.66;4849533;29;20090;-69
2021/12/11 03:55:38;;;;;;;12.43;4.70;;;;;;;-14.80;68.46;101091.22;4882524;29;20059;-69
2021/12/11 03:58:05;;;;;;;8.13;2.88;;;;;;;-14.75;68.39;101084.66;4865505;29;20419;-69
2021/12/11 04:00:48;;;;;;;4.55;2.40;;;;;;;-14.74;68.32;101084.72;4849623;29;20044;-67
2021/12/11 04:03:17;;;;;;;12.90;4.68;;;;;;;-14.85;67.33;101096.09;4865455;29;20044;-66
2021/12/11 04:05:44;;;;;;;7.15;2.78;;;;;;;-14.77;68.31;101094.81;4865256;29;20517;-67
2021/12/11 04:08:13;;;;;;;7.32;3.88;;;;;;;-14.69;68.52;101092.66;4865586;29;20036;-66
2021/12/11 04:10:39;;;;;;;4.25;3.15;;;;;;;-14.71;67.33;101087.47;4881864;29;20088;-69
2021/12/11 04:13:07;;;;;;;8.43;5.53;;;;;;;-14.80;68.17;101086.97;4864908;29;20388;-68
2021/12/11 04:15:32;;;;;;;8.80;4.25;;;;;;;-14.68;67.11;101091.88;4881577;29;20052;-70
2021/12/11 04:17:58;;;;;;;7.70;2.85;;;;;;;-14.68;67.70;101076.50;4881479;29;20052;-67
2021/12/11 04:20:26;;;;;;;2.88;2.25;;;;;;;-14.68;67.45;101083.31;4864832;29;20066;-67
2021/12/11 04:22:51;;;;;;;5.72;3.25;;;;;;;-14.70;67.61;101085.78;4881643;29;20570;-63
2021/12/11 04:25:18;;;;;;;4.80;2.35;;;;;;;-14.80;67.69;101084.44;4833421;29;20499;-63
2021/12/11 04:27:44;;;;;;;7.68;4.35;;;;;;;-14.81;66.83;101089.47;4881435;29;20415;-63
2021/12/11 04:30:13;;;;;;;9.32;6.13;;;;;;;-14.83;67.61;101078.25;4848844;29;20415;-64
2021/12/11 04:32:38;;;;;;;10.35;4.75;;;;;;;-14.85;66.82;101072.19;4883996;29;20473;-67
2021/12/11 04:35:06;;;;;;;6.68;5.38;;;;;;;-14.76;67.75;101076.09;4865007;29;20090;-64
2021/12/11 04:37:32;;;;;;;6.82;4.65;;;;;;;-14.75;66.69;101082.97;4864260;29;20048;-65
2021/12/11 04:40:03;;;;;;;7.78;5.68;;;;;;;-14.88;67.56;101072.88;4864410;29;20115;-63
2021/12/11 04:42:47;;;;;;;16.13;5.63;;;;;;;-14.84;66.82;101071.38;4881372;29;20080;-64
2021/12/11 04:45:38;;;;;;;14.63;7.87;;;;;;;-14.75;67.87;101069.28;4848836;29;20047;-64
2021/12/11 04:48:15;;;;;;;7.45;3.65;;;;;;;-14.89;67.42;101071.13;4823278;29;20061;-65
2021/12/11 05:04:50;;;;;;;8.70;5.18;;;;;;;-14.87;67.95;101078.88;4770834;29;20550;-63
2021/12/11 05:10:15;;;;;;;10.55;6.65;;;;;;;-14.94;67.89;101084.50;4771423;29;20058;-64
2021/12/11 05:12:42;;;;;;;6.20;3.75;;;;;;;-15.07;67.38;101077.84;4755428;29;20057;-64
2021/12/11 05:15:17;;;;;;;11.80;6.05;;;;;;;-15.01;68.37;101077.31;4724864;29;20153;-64
2021/12/11 05:17:42;;;;;;;8.30;3.95;;;;;;;-15.09;68.09;101080.31;4754670;29;20059;-63
2021/12/11 05:20:10;;;;;;;10.90;5.35;;;;;;;-15.05;67.41;101060.91;4769509;29;20059;-64
2021/12/11 05:22:35;;;;;;;7.97;3.10;;;;;;;-15.09;68.63;101066.66;4738173;29;20404;-65
2021/12/11 05:25:00;;;;;;;5.82;3.05;;;;;;;-15.24;68.43;101066.72;4746547;29;20153;-64
2021/12/11 05:27:26;;;;;;;4.90;1.85;;;;;;;-15.15;68.00;101074.88;4786188;29;20564;-65
2021/12/11 05:29:51;;;;;;;6.50;3.05;;;;;;;-15.08;68.40;101074.41;4856025;29;20060;-63
2021/12/11 05:32:19;;;;;;;6.88;4.30;;;;;;;-15.00;67.82;101068.81;4880235;29;20592;-65
2021/12/11 05:34:44;;;;;;;10.43;5.30;;;;;;;-15.04;68.62;101080.56;4880080;29;20052;-62
2021/12/11 05:37:09;;;;;;;6.53;3.55;;;;;;;-14.96;68.77;101086.09;4863299;29;20076;-65
2021/12/11 05:39:34;;;;;;;4.47;2.70;;;;;;;-14.94;68.02;101081.94;4863239;29;20055;-64
2021/12/11 05:41:59;;;;;;;7.88;4.63;;;;;;;-14.87;68.57;101081.44;4863754;29;20100;-65
2021/12/11 05:44:24;;;;;;;11.70;4.43;;;;;;;-14.95;68.27;101081.06;4863923;29;20051;-63
2021/12/11 05:46:52;;;;;;;7.72;3.90;;;;;;;-14.99;68.48;101086.78;4864994;29;20067;-65
2021/12/11 05:49:18;;;;;;;4.72;3.33;;;;;;;-14.96;67.60;101086.09;4880444;29;20463;-65
2021/12/11 05:51:45;;;;;;;5.53;3.78;;;;;;;-14.95;68.33;101085.28;4881257;29;20078;-65
2021/12/11 05:54:15;;;;;;;4.03;2.55;;;;;;;-15.08;67.71;101084.63;4879865;29;20100;-65
2021/12/11 05:56:41;;;;;;;11.63;5.68;;;;;;;-14.92;67.53;101093.13;4879705;29;20528;-65
2021/12/11 05:59:09;;;;;;;3.20;2.58;;;;;;;-14.93;67.78;101078.56;4879730;29;20126;-64
2021/12/11 06:01:45;;;;;;;8.00;5.43;;;;;;;-14.78;67.44;101084.47;4862707;29;20040;-64
2021/12/11 06:04:26;;;;;;;7.03;4.95;;;;;;;-14.90;68.07;101086.41;4862831;29;20380;-64
2021/12/11 06:06:52;;;;;;;6.53;4.30;;;;;;;-14.94;68.32;101099.84;4862861;29;20059;-64
2021/12/11 06:09:20;;;;;;;10.57;5.18;;;;;;;-14.93;67.78;101101.59;4879568;29;20408;-64
2021/12/11 06:11:49;;;;;;;3.30;2.35;;;;;;;-15.00;68.52;101100.38;4879751;29;20075;-65
2021/12/11 06:14:17;;;;;;;2.40;1.98;;;;;;;-14.90;68.72;101107.78;4879603;29;20130;-65
2021/12/11 06:16:41;;;;;;;13.07;3.17;;;;;;;-14.97;68.08;101102.22;4862331;29;20044;-65
2021/12/11 06:19:06;;;;;;;3.70;2.33;;;;;;;-14.91;68.74;101106.00;4847005;29;20055;-65
2021/12/11 06:21:34;;;;;;;2.00;1.65;;;;;;;-14.82;68.63;101103.94;4879608;29;20044;-65
2021/12/11 06:23:59;;;;;;;2.65;2.38;;;;;;;-14.83;68.08;101102.16;4879397;29;20191;-65
2021/12/11 06:26:24;;;;;;;5.57;2.92;;;;;;;-14.79;68.88;101096.44;4863514;29;20082;-64
2021/12/11 06:28:49;;;;;;;6.65;4.78;;;;;;;-14.65;68.44;101115.03;4879490;29;20071;-64
2021/12/11 06:31:18;;;;;;;4.15;2.42;;;;;;;-14.55;67.01;101104.47;4880215;29;20051;-65
2021/12/11 06:33:45;;;;;;;12.68;6.68;;;;;;;-14.47;67.52;101105.78;4862495;29;20051;-64
2021/12/11 06:36:10;;;;;;;2.83;2.55;;;;;;;-14.47;67.27;101098.09;4879415;29;20643;-65
2021/12/11 06:38:36;;;;;;;4.60;3.17;;;;;;;-14.59;66.29;101083.78;4864420;29;20048;-65
2021/12/11 06:41:04;;;;;;;6.68;2.90;;;;;;;-14.56;66.50;101094.19;4866388;29;20048;-65
2021/12/11 06:43:28;;;;;;;6.90;4.28;;;;;;;-14.48;66.79;101082.63;4850504;29;20166;-64
2021/12/11 06:45:54;;;;;;;8.70;4.38;;;;;;;-14.52;67.20;101084.16;4882824;29;20123;-65
2021/12/11 06:48:19;;;;;;;3.75;2.90;;;;;;;-14.44;67.93;101084.53;4862541;29;20491;-65
2021/12/11 06:50:46;;;;;;;12.75;6.35;;;;;;;-14.59;67.45;101079.53;4879629;29;20506;-65
2021/12/11 06:53:20;;;;;;;14.45;5.85;;;;;;;-14.51;67.94;101085.03;4862677;29;20047;-63
2021/12/11 06:55:45;;;;;;;8.60;4.78;;;;;;;-14.49;68.63;101086.88;4862499;29;20044;-64
2021/12/11 06:58:10;;;;;;;8.55;5.43;;;;;;;-14.40;67.74;101086.47;4878714;29;20123;-66
2021/12/11 07:00:35;;;;;;;7.03;3.63;;;;;;;-14.29;68.16;101080.16;4862441;29;20067;-65
2021/12/11 07:03:00;;;;;;;8.02;3.65;;;;;;;-14.15;68.67;101078.31;4862401;29;20078;-64
2021/12/11 07:05:25;;;;;;;9.23;4.90;;;;;;;-13.88;67.56;101077.06;4862379;29;20043;-64
2021/12/11 07:07:49;;;;;;;4.18;2.10;;;;;;;-13.81;66.10;101079.16;4862312;29;20048;-65
2021/12/11 07:10:19;;;;;;;3.33;2.85;;;;;;;-13.81;66.23;101091.97;4879200;29;20043;-65
2021/12/11 07:12:45;;;;;;;11.07;6.45;;;;;;;-13.90;66.01;101093.22;4879190;29;20040;-64
2021/12/11 07:15:10;;;;;;;11.85;6.85;;;;;;;-13.91;67.17;101099.13;4878940;29;20044;-64
2021/12/11 07:17:36;;;;;;;5.97;2.83;;;;;;;-13.78;66.82;101104.94;4858834;29;20075;-64
2021/12/11 07:20:04;;;;;;;6.38;3.85;;;;;;;-13.65;66.04;101106.38;4843617;29;20085;-65
2021/12/11 07:22:29;;;;;;;5.97;3.55;;;;;;;-13.71;66.36;101100.97;4863141;29;20056;-63
2021/12/11 07:25:00;;;;;;;15.27;5.07;;;;;;;-13.66;65.35;101097.84;4863685;29;20044;-64
2021/12/11 07:27:25;;;;;;;4.50;2.75;;;;;;;-13.55;66.03;101097.47;4863864;29;20393;-63
2021/12/11 07:29:50;;;;;;;3.63;3.33;;;;;;;-13.61;65.41;101096.38;4864022;29;20539;-63
2021/12/11 07:32:15;;;;;;;11.18;4.47;;;;;;;-13.64;65.96;101101.34;4846867;29;20048;-65
2021/12/11 07:34:41;;;;;;;14.43;5.28;;;;;;;-13.61;66.43;101108.31;4863671;29;20050;-65
2021/12/11 07:37:07;;;;;;;2.60;2.30;;;;;;;-13.50;66.57;101113.94;4861989;29;20780;-65
2021/12/11 07:39:32;;;;;;;13.23;6.63;;;;;;;-13.45;65.88;101107.38;4862394;29;20119;-65
2021/12/11 07:41:58;;;;;;;5.03;4.03;;;;;;;-13.30;64.91;101108.06;4863663;29;20448;-65
2021/12/11 07:44:25;;;;;;;12.48;6.32;;;;;;;-13.30;65.53;101108.06;4863961;29;20447;-65
2021/12/11 07:46:51;;;;;;;11.40;6.57;;;;;;;-13.26;65.77;101104.84;4863711;29;20059;-64
2021/12/11 07:49:17;;;;;;;22.02;6.80;;;;;;;-13.20;65.81;101106.84;4863981;29;20048;-63
2021/12/11 07:51:42;;;;;;;4.43;2.63;;;;;;;-13.00;65.21;101114.63;4862321;29;20064;-65
2021/12/11 07:54:08;;;;;;;7.00;2.80;;;;;;;-12.63;65.09;101113.69;4863338;29;20048;-64
2021/12/11 07:56:33;;;;;;;9.48;5.30;;;;;;;-12.32;65.34;101116.81;4863579;29;20100;-65
2021/12/11 07:59:03;;;;;;;9.48;4.68;;;;;;;-11.94;63.43;101114.97;4861903;29;20044;-65
2021/12/11 08:01:30;;;;;;;3.38;2.90;;;;;;;-11.58;63.23;101100.13;4861995;29;20048;-64
2021/12/11 08:03:59;;;;;;;8.20;3.72;;;;;;;-11.21;62.11;101102.47;4863395;29;20108;-65
2021/12/11 08:06:24;;;;;;;13.35;6.15;;;;;;;-10.81;61.09;101110.00;4866127;29;20499;-66
2021/12/11 08:08:48;;;;;;;11.63;6.72;;;;;;;-10.45;59.91;101108.78;4865538;29;20059;-65
2021/12/11 08:11:17;;;;;;;6.70;3.65;;;;;;;-10.20;59.32;101095.09;4863754;29;20072;-66
2021/12/11 08:13:44;;;;;;;7.95;3.72;;;;;;;-10.03;57.26;101105.94;4863008;29;20499;-63
2021/12/11 08:16:08;;;;;;;10.23;5.55;;;;;;;-10.04;57.06;101110.19;4861667;29;20495;-65
2021/12/11 08:18:33;;;;;;;4.15;3.33;;;;;;;-10.15;56.69;101115.81;4877146;29;20533;-65
2021/12/11 08:20:58;;;;;;;7.20;3.85;;;;;;;-10.20;56.25;101099.34;4864466;29;20103;-63
2021/12/11 08:23:23;;;;;;;8.05;4.38;;;;;;;-10.25;55.99;101100.88;4864195;29;20503;-63
2021/12/11 08:25:49;;;;;;;5.53;3.75;;;;;;;-10.23;55.60;101094.97;4881475;29;20480;-65
2021/12/11 08:28:18;;;;;;;5.57;3.47;;;;;;;-10.18;55.65;101097.72;4833347;29;20103;-65
2021/12/11 08:30:46;;;;;;;2.92;2.33;;;;;;;-9.86;55.93;101096.19;4881414;29;20051;-65
2021/12/11 08:33:10;;;;;;;11.77;6.38;;;;;;;-9.51;56.08;101093.06;4880245;29;20063;-65
2021/12/11 08:35:37;;;;;;;12.77;6.03;;;;;;;-9.10;55.16;101085.72;4881213;29;20055;-64
2021/12/11 08:38:04;;;;;;;7.28;4.07;;;;;;;-8.94;54.81;101093.13;4864225;29;20478;-66
2021/12/11 08:40:32;;;;;;;8.38;3.65;;;;;;;-9.01;53.39;101088.59;4864474;29;20075;-66
2021/12/11 08:42:58;;;;;;;13.25;6.40;;;;;;;-9.13;53.84;101077.88;4864307;29;20099;-65
2021/12/11 08:45:33;;;;;;;6.65;4.38;;;;;;;-8.91;54.63;101081.16;4881805;29;20036;-65
2021/12/11 08:47:59;;;;;;;8.43;4.82;;;;;;;-8.10;54.42;101068.75;4882173;29;20156;-66
2021/12/11 08:50:29;;;;;;;12.90;6.20;;;;;;;-7.31;52.71;101069.84;4881800;29;20064;-65
2021/12/11 08:52:55;;;;;;;11.18;6.82;;;;;;;-6.79;52.05;101053.75;4881899;29;20044;-65
2021/12/11 08:55:24;;;;;;;6.32;2.88;;;;;;;-6.35;52.56;101057.22;4863936;29;20052;-65
2021/12/11 08:57:49;;;;;;;12.68;7.18;;;;;;;-5.71;51.00;101053.13;4864077;29;20422;-67
2021/12/11 09:00:40;;;;;;;8.82;4.82;;;;;;;-4.62;49.68;101052.97;4863696;29;20111;-65
2021/12/11 09:03:16;;;;;;;10.73;6.18;;;;;;;-4.03;46.95;101041.50;4825330;29;20464;-64
2021/12/11 09:05:46;;;;;;;7.13;5.05;;;;;;;-4.10;46.80;101031.03;4825403;29;20060;-67
2021/12/11 09:08:21;;;;;;;11.23;5.10;;;;;;;-4.23;47.20;101032.63;4841114;29;20061;-65
2021/12/11 09:11:08;;;;;;;7.03;4.68;;;;;;;-4.04;48.48;101039.75;4825558;29;20091;-65
2021/12/11 09:13:49;;;;;;;10.27;6.07;;;;;;;-4.13;47.40;101044.00;4841179;29;20548;-67
2021/12/11 09:16:19;;;;;;;7.18;3.90;;;;;;;-3.85;49.03;101035.59;4825747;29;20048;-66
2021/12/11 09:19:07;;;;;;;10.20;5.55;;;;;;;-3.79;47.95;101040.88;4825352;29;20075;-66
2021/12/11 09:21:47;;;;;;;11.13;6.13;;;;;;;-3.80;46.66;101038.25;4825958;29;20057;-66
2021/12/11 09:24:20;;;;;;;9.10;4.07;;;;;;;-3.89;47.67;101043.38;4826037;29;20554;-66
2021/12/11 09:27:12;;;;;;;10.80;6.00;;;;;;;-4.30;46.92;101038.63;4826658;29;20492;-65
2021/12/11 09:29:47;;;;;;;9.45;6.50;;;;;;;-4.97;46.09;101034.34;4827293;29;20578;-64
2021/12/11 09:32:28;;;;;;;8.93;4.75;;;;;;;-5.29;45.68;101029.53;4826617;29;20096;-67
2021/12/11 09:35:07;;;;;;;10.63;4.95;;;;;;;-5.82;46.01;101022.63;4842064;29;20074;-64
2021/12/11 09:37:33;;;;;;;9.20;5.10;;;;;;;-6.13;46.66;101031.66;4844678;29;20101;-65
2021/12/11 09:40:11;;;;;;;10.27;5.50;;;;;;;-6.32;46.19;101020.09;4846432;29;20059;-63
2021/12/11 09:42:36;;;;;;;12.10;6.00;;;;;;;-6.61;46.55;101032.47;4871703;29;20052;-65
2021/12/11 09:45:10;;;;;;;12.02;6.45;;;;;;;-6.71;46.63;101033.16;4897866;29;20052;-65
2021/12/11 09:47:40;;;;;;;;;;;;;;;-6.49;47.88;101043.09;4891039;29;20127;-65
2021/12/11 09:50:11;;;;;;;8.48;5.13;;;;;;;-6.31;46.90;101025.28;4884594;29;19919;-66
2021/12/11 09:52:38;;;;;;;13.50;6.63;;;;;;;-6.25;47.23;101030.59;4847859;29;20087;-65
2021/12/11 09:55:11;;;;;;;10.95;5.60;;;;;;;-6.06;47.16;101028.31;4862796;29;20056;-66
2021/12/11 09:57:39;;;;;;;13.40;6.40;;;;;;;-5.95;46.21;101021.59;4862957;29;20641;-65
2021/12/11 10:00:15;;;;;;;6.50;3.25;;;;;;;-5.51;45.95;101020.56;4880031;29;20640;-65
2021/12/11 10:02:41;;;;;;;7.80;5.68;;;;;;;-5.35;45.08;101023.38;4879824;29;20131;-65
2021/12/11 10:05:27;;;;;;;5.95;4.30;;;;;;;-5.22;44.11;101025.31;4863003;29;20104;-66
2021/12/11 10:08:03;;;;;;;11.88;6.57;;;;;;;-5.55;44.33;101010.09;4863052;29;20107;-65
2021/12/11 10:10:28;;;;;;;6.63;2.95;;;;;;;-5.20;44.90;101013.22;4862652;29;20056;-65
2021/12/11 10:12:57;;;;;;;10.00;5.13;;;;;;;-5.19;44.11;101012.38;4879520;29;20044;-63
2021/12/11 10:15:28;;;;;;;10.13;5.25;;;;;;;-5.45;44.21;101003.31;4879535;29;20048;-63
2021/12/11 10:18:08;;;;;;;14.15;6.32;;;;;;;-5.88;45.63;101007.88;4879321;29;20139;-64
2021/12/11 10:20:40;;;;;;;12.23;4.50;;;;;;;-5.86;45.89;101003.53;4862474;29;20099;-65
2021/12/11 10:23:09;;;;;;;12.43;6.35;;;;;;;-6.07;45.44;101000.59;4862359;29;20522;-65
2021/12/11 10:25:38;;;;;;;8.48;4.63;;;;;;;-6.70;47.02;101012.44;4879396;29;20048;-66
2021/12/11 10:28:07;;;;;;;11.85;5.15;;;;;;;-7.36;46.94;101006.72;4879477;29;20135;-64
2021/12/11 10:30:37;;;;;;;16.88;7.72;;;;;;;-8.24;48.69;101009.75;4862281;29;20566;-63
2021/12/11 10:33:03;;;;;;;8.55;4.38;;;;;;;-8.73;49.52;101013.63;4862403;29;20487;-65
2021/12/11 10:35:35;;;;;;;4.38;2.63;;;;;;;-9.06;50.06;101017.84;4879294;29;20048;-65
2021/12/11 10:38:03;;;;;;;6.70;3.53;;;;;;;-9.44;50.65;101014.09;4879345;29;20050;-63
2021/12/11 10:40:37;;;;;;;9.13;5.28;;;;;;;-9.69;51.08;101020.19;4879312;29;20054;-63
2021/12/11 10:43:10;;;;;;;9.50;4.95;;;;;;;-10.09;51.86;101013.78;4879283;29;20051;-64
2021/12/11 10:45:36;;;;;;;7.82;3.72;;;;;;;-10.37;53.00;101011.09;4879592;29;20058;-68
2021/12/11 10:48:06;;;;;;;8.43;4.15;;;;;;;-10.45;53.59;101015.13;4862294;29;20384;-66
2021/12/11 10:50:54;;;;;;;12.00;6.20;;;;;;;-10.62;54.40;101008.53;4879176;29;20044;-65
2021/12/11 10:53:22;;;;;;;9.35;4.82;;;;;;;-10.74;54.51;101006.41;4879175;29;20043;-67
2021/12/11 10:55:49;;;;;;;10.52;5.65;;;;;;;-10.75;54.52;101004.66;4846939;29;20507;-66
2021/12/11 10:58:18;;;;;;;12.10;6.97;;;;;;;-10.70;54.58;101005.66;4866069;29;20079;-66
2021/12/11 11:00:45;;;;;;;6.50;4.72;;;;;;;-10.80;54.73;101001.00;4883077;29;20048;-67
2021/12/11 11:03:11;;;;;;;10.63;4.63;;;;;;;-11.03;55.37;100997.63;4866000;29;20360;-66
2021/12/11 11:05:37;;;;;;;10.35;5.50;;;;;;;-11.15;55.93;100998.03;4882855;29;20067;-64
2021/12/11 11:08:04;;;;;;;18.05;6.15;;;;;;;-11.19;56.62;100995.31;4882612;29;20442;-64
2021/12/11 11:10:33;;;;;;;6.78;5.13;;;;;;;-11.18;57.12;101004.78;4882596;29;20044;-66
2021/12/11 11:13:00;;;;;;;7.88;4.32;;;;;;;-11.38;56.92;101004.91;4882806;29;20047;-66
2021/12/11 11:15:27;;;;;;;12.82;7.00;;;;;;;-11.46;57.48;101005.44;4882459;29;20135;-66
2021/12/11 11:17:53;;;;;;;4.55;3.63;;;;;;;-11.37;57.56;101009.22;4882590;29;20063;-65
2021/12/11 11:20:25;;;;;;;6.93;5.05;;;;;;;-11.25;57.55;100997.63;4882528;29;20044;-66
2021/12/11 11:22:50;;;;;;;8.68;5.13;;;;;;;-11.29;57.61;100985.50;4882455;29;20137;-65
2021/12/11 11:25:19;;;;;;;7.93;3.33;;;;;;;-11.25;57.68;100987.34;4882746;29;20036;-64
2021/12/11 11:27:50;;;;;;;3.85;3.20;;;;;;;-11.33;57.59;100994.78;4882572;29;20460;-65
2021/12/11 11:30:20;;;;;;;13.05;6.53;;;;;;;-11.39;58.52;100992.84;4865206;29;20083;-65
2021/12/11 11:32:45;;;;;;;8.63;5.35;;;;;;;-11.36;58.55;100986.94;4872711;29;20052;-66
2021/12/11 11:35:15;;;;;;;8.93;4.05;;;;;;;-11.46;58.64;100988.31;4846658;29;20036;-66
2021/12/11 11:37:41;;;;;;;5.93;4.50;;;;;;;-11.30;58.89;100988.88;4863542;29;20110;-65
2021/12/11 11:40:10;;;;;;;3.00;2.45;;;;;;;-11.20;58.75;100988.41;4863599;29;20055;-66
2021/12/11 11:42:37;;;;;;;13.80;7.32;;;;;;;-11.38;59.14;100992.03;4846807;29;20130;-66
2021/12/11 11:45:05;;;;;;;11.20;6.15;;;;;;;-11.49;59.23;100983.03;4846718;29;20032;-66
2021/12/11 11:47:30;;;;;;;13.43;6.72;;;;;;;-11.56;60.38;100978.47;4863469;29;20048;-64
2021/12/11 11:49:59;;;;;;;3.80;2.08;;;;;;;-11.37;59.76;100986.06;4863114;29;20056;-65